• Join FlightAware (Why Join?)
  • Login
  • US Flag 
01:00AM EDT


 

Airport Tracker/Info


-or-


 

Live Flight TrackerFlight Track Log ✈ USC105 ✈ 10-Apr-2013 ✈ KLCK - KBKL

Flight Track Log - Related Links

Times and Time Zones

All times are in EDT time to prevent confusion due to time zone crossing. See the USC105 flight status page for this flight to view local times or setup timezone preferences in your user account.

Time Position Orientation Groundspeed Altitude Reporting Facility
EDT Latitude Longitude Course Direction KTS MPH feet Rate Location/Type
09:59PM 39.8197 -82.9219 47° Northeast 109 125 1,000  Level Indianapolis Center
10:00PM 39.8358 -82.8994 47° Northeast 99 114 2,300 1,200 Climbing Indianapolis Center
10:00PM 39.8567 -82.8692 48° Northeast 123 142 3,200 960 Climbing Indianapolis Center
10:01PM 39.8628 -82.8583 54° Northeast 115 132 3,600 960 Climbing Indianapolis Center
10:01PM 39.8761 -82.8278 60° Northeast 133 153 4,200 780 Climbing Indianapolis Center
10:02PM 39.8828 -82.8178 49° Northeast 126 145 4,400 360 Climbing Indianapolis Center
10:02PM 39.9158 -82.7997 23° Northeast 178 205 4,600 480 Climbing Indianapolis Center
10:03PM 39.9289 -82.7900 30° Northeast 171 197 4,900 360 Climbing Indianapolis Center
10:03PM 39.9642 -82.7644 29° Northeast 189 217 5,000 60 Climbing Indianapolis Center
10:04PM 39.9739 -82.7569 31° Northeast 181 208 5,000  Level Indianapolis Center
10:04PM 40.0147 -82.7292 28° Northeast 216 249 5,000  Level Indianapolis Center
10:05PM 40.0275 -82.7197 30° Northeast 208 239 5,000 -120 Level Indianapolis Center
10:05PM 40.0650 -82.6939 28° Northeast 210 242 4,900 -120 Descending Indianapolis Center
10:06PM 40.0881 -82.6797 25° Northeast 208 239 4,900  Level Indianapolis Center
10:06PM 40.1153 -82.6614 27° Northeast 205 236 4,900  Level Indianapolis Center
10:07PM 40.1386 -82.6453 28° Northeast 204 235 4,900  Level Indianapolis Center
10:07PM 40.1656 -82.6289 25° Northeast 203 234 4,900  Level Indianapolis Center
10:08PM 40.1903 -82.6117 28° Northeast 204 235 4,900  Level Indianapolis Center
10:09PM 40.2203 -82.5911 28° Northeast 204 235 4,900  Level Indianapolis Center
10:09PM 40.2406 -82.5767 29° Northeast 204 235 4,900  Level Indianapolis Center
10:10PM 40.2706 -82.5556 28° Northeast 205 236 4,900  Level Indianapolis Center
10:10PM 40.2872 -82.5453 25° Northeast 205 236 4,900  Level Indianapolis Center
10:11PM 40.3364 -82.5092 29° Northeast 202 232 4,900  Level Indianapolis Center
10:12PM 40.3856 -82.4733 29° Northeast 200 230 4,900  Level Indianapolis Center
10:13PM 40.4350 -82.4431 25° Northeast 196 226 4,900  Level Indianapolis Center
10:14PM 40.4822 -82.4028 33° Northeast 200 230 4,900  Level Indianapolis Center
10:15PM 40.5286 -82.3628 33° Northeast 198 228 4,900  Level Indianapolis Center
10:16PM 40.5761 -82.3256 31° Northeast 197 227 4,900  Level Indianapolis Center
10:17PM 40.6306 -82.2847 30° Northeast 191 220 5,000  Climbing Indianapolis Center
10:18PM 40.6756 -82.2458 33° Northeast 192 221 4,900 -60 Descending Indianapolis Center
10:19PM 40.7192 -82.2103 32° Northeast 186 214 4,900  Level Indianapolis Center
10:20PM 40.7636 -82.1728 33° Northeast 186 214 4,900  Level Indianapolis Center
10:21PM 40.8133 -82.1331 31° Northeast 188 216 5,000  Climbing Cleveland Center
10:22PM 40.8533 -82.1011 31° Northeast 182 209 5,000  Level Cleveland Center
10:23PM 40.8975 -82.0636 33° Northeast 186 214 5,000  Level Cleveland Center
10:24PM 40.9333 -82.0342 32° Northeast 185 213 5,000  Level Cleveland Center
10:25PM 40.9797 -81.9969 31° Northeast 182 209 5,000 -60 Level Cleveland Center
10:26PM 41.0178 -81.9647 33° Northeast 192 221 4,900 -540 Descending Cleveland Center
10:27PM 41.0725 -81.9133 35° Northeast 207 238 4,000 -900 Descending Cleveland Center
10:28PM 41.1189 -81.8703 35° Northeast 208 239 3,100 -600 Descending Cleveland Center
10:29PM 41.1650 -81.8492 19° North 193 222 2,900 -120 Descending Cleveland Center
10:30PM 41.2111 -81.8253 21° North 177 204 2,900  Level Cleveland Center
10:31PM 41.2550 -81.8039 20° North 168 193 2,900  Level Cleveland Center
10:32PM 41.2969 -81.7825 21° North 172 198 3,000  Climbing Cleveland Center
10:33PM 41.3453 -81.7558 22° Northeast 169 194 3,000 -180 Level Cleveland Center
10:34PM 41.3953 -81.7483 North 176 203 2,700 -300 Descending Cleveland Center
10:35PM 41.4433 -81.7467 North 173 199 2,400 -300 Descending Cleveland Center
10:36PM 41.4933 -81.7392 North 157 181 2,100 -300 Descending Cleveland Center